Time;durP1;ratioP1;P1;durP2;ratioP2;P2;SDS_P1;SDS_P2;PMS_P1;PMS_P2;Temp;Humidity;BMP_temperature;BMP_pressure;BME280_temperature;BME280_humidity;BME280_pressure;Samples;Min_cycle;Max_cycle;Signal;HPM_P1;HPM_P2
2022/01/26 00:07:34;;;;;;;86.43;38.95;;;;;;;;;;5033122;28;20029;-61
2022/01/26 00:10:00;;;;;;;84.60;40.83;;;;;;;;;;5033133;28;20018;-61
2022/01/26 00:12:26;;;;;;;86.20;39.90;;;;;;;;;;5052324;28;20036;-61
2022/01/26 00:14:53;;;;;;;82.38;37.33;;;;;;;;;;5073957;28;20021;-61
2022/01/26 00:17:19;;;;;;;78.15;37.92;;;;;;;;;;5075349;28;20111;-62
2022/01/26 00:22:33;;;;;;;78.45;36.95;;;;;;;;;;5075126;28;20032;-62
2022/01/26 00:27:57;;;;;;;84.20;38.17;;;;;;;;;;5074762;28;20465;-63
2022/01/26 00:38:41;;;;;;;79.90;35.60;;;;;;;;;;5074523;28;20154;-64
2022/01/26 00:41:11;;;;;;;81.88;36.53;;;;;;;;;;5074191;28;20024;-64
2022/01/26 00:43:39;;;;;;;79.25;35.53;;;;;;;;;;5074741;28;20020;-63
2022/01/26 00:46:07;;;;;;;85.57;37.13;;;;;;;;;;5074660;28;20012;-59
2022/01/26 00:48:36;;;;;;;77.25;35.80;;;;;;;;;;5074248;28;20017;-64
2022/01/26 00:51:05;;;;;;;77.82;34.97;;;;;;;;;;5074473;28;20024;-64
2022/01/26 00:53:43;;;;;;;73.95;35.08;;;;;;;;;;5074077;28;20048;-62
2022/01/26 00:56:09;;;;;;;81.10;36.70;;;;;;;;;;5074677;28;20008;-63
2022/01/26 00:58:36;;;;;;;73.70;33.22;;;;;;;;;;5074329;28;20048;-62
2022/01/26 01:01:03;;;;;;;79.25;34.72;;;;;;;;;;5073769;28;20077;-62
2022/01/26 01:03:32;;;;;;;77.57;35.10;;;;;;;;;;5073777;28;20108;-62
2022/01/26 01:06:03;;;;;;;81.72;34.55;;;;;;;;;;5074141;28;20388;-61
2022/01/26 01:08:30;;;;;;;71.63;33.78;;;;;;;;;;5073459;28;20023;-60
2022/01/26 01:10:57;;;;;;;77.38;33.78;;;;;;;;;;5074501;28;20361;-63
2022/01/26 01:13:33;;;;;;;72.43;33.08;;;;;;;;;;5074080;28;20016;-62
2022/01/26 01:15:59;;;;;;;82.88;36.65;;;;;;;;;;5073668;28;20357;-60
2022/01/26 01:18:36;;;;;;;69.90;33.15;;;;;;;;;;5074304;28;20029;-63
2022/01/26 01:29:13;;;;;;;80.95;37.65;;;;;;;;;;5073516;28;20035;-61
2022/01/26 01:31:44;;;;;;;82.03;38.10;;;;;;;;;;5073765;28;20012;-60
2022/01/26 01:34:11;;;;;;;100.95;39.67;;;;;;;;;;5074167;28;20013;-61
2022/01/26 01:36:40;;;;;;;80.78;38.75;;;;;;;;;;5073434;28;20024;-63
2022/01/26 01:39:10;;;;;;;81.88;39.17;;;;;;;;;;5073569;28;20029;-61
2022/01/26 01:41:37;;;;;;;89.25;39.78;;;;;;;;;;5073927;28;20024;-63
2022/01/26 01:44:04;;;;;;;87.05;40.08;;;;;;;;;;5073031;28;20019;-63
2022/01/26 01:46:30;;;;;;;93.28;40.88;;;;;;;;;;5073466;28;20091;-62
2022/01/26 01:48:57;;;;;;;100.20;42.22;;;;;;;;;;5073932;28;20435;-63
2022/01/26 01:51:29;;;;;;;96.47;42.90;;;;;;;;;;5073076;28;20027;-63
2022/01/26 01:53:56;;;;;;;86.90;41.13;;;;;;;;;;5073574;28;20460;-62
2022/01/26 01:56:25;;;;;;;85.82;35.63;;;;;;;;;;5072721;28;20059;-64
2022/01/26 01:58:52;;;;;;;86.45;39.63;;;;;;;;;;5071945;28;20048;-62
2022/01/26 02:01:18;;;;;;;77.85;35.00;;;;;;;;;;5073572;28;20021;-62
2022/01/26 02:03:44;;;;;;;75.97;35.63;;;;;;;;;;5073634;28;20455;-64
2022/01/26 02:06:11;;;;;;;107.10;46.08;;;;;;;;;;5073313;28;20346;-61
2022/01/26 02:08:37;;;;;;;102.68;44.92;;;;;;;;;;5073510;28;20048;-62
2022/01/26 02:11:06;;;;;;;75.85;34.28;;;;;;;;;;5071377;28;20361;-62
2022/01/26 02:13:40;;;;;;;84.10;37.25;;;;;;;;;;5072258;28;20013;-63
2022/01/26 02:16:15;;;;;;;83.13;37.20;;;;;;;;;;5071492;28;20024;-62
2022/01/26 02:21:41;;;;;;;76.35;35.00;;;;;;;;;;5074985;28;20031;-63
2022/01/26 02:54:18;;;;;;;91.35;40.05;;;;;;;;;;5076416;28;20020;-63
2022/01/26 03:01:59;;;;;;;79.93;37.92;;;;;;;;;;5076186;28;20024;-64
2022/01/26 03:04:40;;;;;;;87.35;40.10;;;;;;;;;;5076424;28;20059;-64
2022/01/26 03:09:45;;;;;;;84.68;37.30;;;;;;;;;;5076790;28;20028;-63
2022/01/26 03:12:16;;;;;;;75.95;36.20;;;;;;;;;;5076625;28;20027;-60
2022/01/26 03:15:10;;;;;;;83.60;37.30;;;;;;;;;;5076435;28;20016;-65
2022/01/26 03:20:09;;;;;;;70.20;34.60;;;;;;;;;;5076687;28;20033;-61
2022/01/26 03:35:47;;;;;;;63.75;28.65;;;;;;;;;;5075935;28;20024;-62
2022/01/26 03:38:20;;;;;;;59.70;26.50;;;;;;;;;;5075870;28;20017;-63
2022/01/26 03:40:48;;;;;;;61.15;26.30;;;;;;;;;;5075828;28;20025;-62
2022/01/26 03:43:15;;;;;;;67.60;28.58;;;;;;;;;;5075359;28;20016;-62
2022/01/26 03:45:41;;;;;;;84.07;34.13;;;;;;;;;;5075968;28;20028;-61
2022/01/26 03:48:07;;;;;;;83.43;34.63;;;;;;;;;;5075765;28;20032;-62
2022/01/26 03:50:33;;;;;;;94.10;37.47;;;;;;;;;;5075797;28;20024;-64
2022/01/26 03:52:59;;;;;;;81.60;35.20;;;;;;;;;;5075788;28;20017;-62
2022/01/26 03:55:25;;;;;;;80.03;34.92;;;;;;;;;;5075756;28;20027;-61
2022/01/26 03:57:51;;;;;;;83.55;36.58;;;;;;;;;;5075373;28;20044;-62
2022/01/26 04:00:18;;;;;;;68.80;30.10;;;;;;;;;;5075859;28;20016;-64
2022/01/26 04:02:44;;;;;;;63.25;27.25;;;;;;;;;;5075198;28;20016;-66
2022/01/26 04:05:11;;;;;;;52.13;24.77;;;;;;;;;;5075171;28;20035;-61
2022/01/26 04:07:38;;;;;;;62.08;25.50;;;;;;;;;;5075713;28;20020;-63
2022/01/26 04:10:17;;;;;;;54.75;25.83;;;;;;;;;;5075055;28;20406;-63
2022/01/26 04:12:43;;;;;;;57.22;26.50;;;;;;;;;;5075401;28;20095;-64
2022/01/26 04:15:20;;;;;;;62.45;27.38;;;;;;;;;;5074007;28;20407;-61
2022/01/26 04:17:47;;;;;;;55.83;26.08;;;;;;;;;;5074853;28;20082;-60
2022/01/26 04:20:13;;;;;;;52.13;24.30;;;;;;;;;;5075234;28;20036;-61
2022/01/26 04:23:24;;;;;;;53.80;24.73;;;;;;;;;;5075173;28;20052;-63
2022/01/26 04:25:52;;;;;;;40.10;19.98;;;;;;;;;;5074489;28;20040;-63
2022/01/26 04:28:29;;;;;;;52.20;23.92;;;;;;;;;;5074940;28;20407;-62
2022/01/26 04:30:55;;;;;;;52.28;23.70;;;;;;;;;;5074626;28;20111;-62
2022/01/26 04:33:21;;;;;;;48.50;22.30;;;;;;;;;;5075046;28;20099;-62
2022/01/26 04:35:48;;;;;;;60.03;24.58;;;;;;;;;;5074647;28;20070;-62
2022/01/26 04:38:23;;;;;;;52.90;25.02;;;;;;;;;;5074158;28;20449;-64
2022/01/26 04:41:08;;;;;;;50.65;24.20;;;;;;;;;;5074418;28;20035;-65
2022/01/26 04:43:38;;;;;;;53.63;24.52;;;;;;;;;;5074929;28;20024;-63
2022/01/26 04:46:06;;;;;;;46.42;22.65;;;;;;;;;;5073977;28;20592;-62
2022/01/26 04:48:32;;;;;;;45.78;21.98;;;;;;;;;;5074365;28;20504;-62
2022/01/26 04:50:59;;;;;;;45.83;22.75;;;;;;;;;;5074370;28;20012;-66
2022/01/26 04:53:25;;;;;;;41.22;20.98;;;;;;;;;;5073921;28;20021;-62
2022/01/26 04:55:52;;;;;;;53.10;22.05;;;;;;;;;;5074212;28;20465;-63
2022/01/26 04:58:18;;;;;;;52.22;22.52;;;;;;;;;;5074543;28;20044;-63
2022/01/26 05:00:44;;;;;;;42.45;21.75;;;;;;;;;;5073862;28;20021;-62
2022/01/26 05:03:10;;;;;;;37.70;18.77;;;;;;;;;;5074399;28;20024;-61
2022/01/26 05:05:37;;;;;;;38.63;18.90;;;;;;;;;;5073973;28;20438;-63
2022/01/26 05:08:03;;;;;;;39.38;18.17;;;;;;;;;;5074327;28;20025;-63
2022/01/26 05:10:29;;;;;;;36.95;16.80;;;;;;;;;;5073959;28;20021;-61
2022/01/26 05:12:55;;;;;;;36.63;17.02;;;;;;;;;;5073853;28;20021;-61
2022/01/26 05:15:23;;;;;;;39.17;19.13;;;;;;;;;;5074030;28;20021;-61
2022/01/26 05:17:50;;;;;;;49.28;21.98;;;;;;;;;;5073878;28;20457;-61
2022/01/26 05:20:16;;;;;;;46.05;22.00;;;;;;;;;;5073604;28;20016;-62
2022/01/26 05:22:44;;;;;;;53.75;23.77;;;;;;;;;;5073405;28;20027;-63
2022/01/26 05:25:11;;;;;;;43.70;22.30;;;;;;;;;;5074348;28;20043;-61
2022/01/26 05:27:37;;;;;;;48.50;22.92;;;;;;;;;;5073708;28;20020;-64
2022/01/26 05:30:04;;;;;;;49.22;23.52;;;;;;;;;;5073624;28;20061;-62
2022/01/26 05:32:30;;;;;;;45.95;23.13;;;;;;;;;;5074322;28;20038;-62
2022/01/26 05:34:56;;;;;;;50.90;23.02;;;;;;;;;;5073641;28;20023;-61
2022/01/26 05:37:23;;;;;;;52.15;24.45;;;;;;;;;;5073772;28;20163;-62
2022/01/26 05:39:49;;;;;;;58.58;25.85;;;;;;;;;;5073837;28;20020;-60
2022/01/26 05:42:17;;;;;;;52.17;26.55;;;;;;;;;;5073607;28;20103;-63
2022/01/26 05:44:43;;;;;;;59.72;28.63;;;;;;;;;;5073217;28;20012;-63
2022/01/26 05:47:14;;;;;;;59.78;28.85;;;;;;;;;;5072988;28;20027;-61
2022/01/26 05:49:41;;;;;;;58.25;28.60;;;;;;;;;;5071670;28;20021;-60
2022/01/26 05:52:07;;;;;;;61.30;28.08;;;;;;;;;;5072178;28;20024;-61
2022/01/26 05:54:33;;;;;;;58.15;28.20;;;;;;;;;;5073229;28;20021;-61
2022/01/26 05:56:59;;;;;;;63.53;30.13;;;;;;;;;;5073197;28;20025;-61
2022/01/26 05:59:25;;;;;;;66.22;30.63;;;;;;;;;;5072939;28;20049;-63
2022/01/26 06:01:52;;;;;;;69.32;31.77;;;;;;;;;;5073290;28;20032;-62
2022/01/26 06:04:19;;;;;;;65.88;30.90;;;;;;;;;;5073289;28;20365;-61
2022/01/26 06:06:45;;;;;;;65.85;29.35;;;;;;;;;;5073775;28;20044;-62
2022/01/26 06:09:11;;;;;;;59.13;28.45;;;;;;;;;;5073231;28;20465;-64
2022/01/26 06:11:37;;;;;;;66.15;29.65;;;;;;;;;;5073548;28;20021;-61
2022/01/26 06:14:04;;;;;;;62.38;28.65;;;;;;;;;;5073485;28;20410;-63
2022/01/26 06:16:30;;;;;;;53.90;27.58;;;;;;;;;;5073204;28;20051;-62
2022/01/26 06:18:56;;;;;;;69.18;30.05;;;;;;;;;;5071975;28;20032;-63
2022/01/26 06:21:22;;;;;;;75.05;32.70;;;;;;;;;;5073515;28;20012;-63
2022/01/26 06:23:48;;;;;;;69.90;31.00;;;;;;;;;;5073642;28;20024;-63
2022/01/26 06:26:15;;;;;;;78.85;33.72;;;;;;;;;;5073078;28;20425;-61
2022/01/26 06:28:41;;;;;;;79.13;34.35;;;;;;;;;;5073302;28;20056;-61
2022/01/26 06:31:11;;;;;;;117.22;44.92;;;;;;;;;;5073121;28;20043;-63
2022/01/26 06:33:39;;;;;;;177.90;65.15;;;;;;;;;;5073212;28;20104;-63
2022/01/26 06:36:06;;;;;;;163.13;56.70;;;;;;;;;;5073318;28;20048;-62
2022/01/26 06:38:32;;;;;;;187.23;68.78;;;;;;;;;;5072451;28;20036;-61
2022/01/26 06:41:00;;;;;;;192.23;68.40;;;;;;;;;;5073136;28;20074;-62
2022/01/26 06:43:30;;;;;;;131.05;54.05;;;;;;;;;;5073041;28;20017;-63
2022/01/26 06:46:07;;;;;;;115.53;46.92;;;;;;;;;;5073310;28;20070;-64
2022/01/26 06:48:44;;;;;;;137.52;52.08;;;;;;;;;;5073703;28;20104;-63
2022/01/26 06:51:12;;;;;;;169.23;63.28;;;;;;;;;;5072764;28;20047;-60
2022/01/26 06:53:38;;;;;;;103.25;42.83;;;;;;;;;;5072775;28;20486;-62
2022/01/26 06:56:04;;;;;;;107.60;40.13;;;;;;;;;;5073026;28;20514;-63
2022/01/26 06:58:30;;;;;;;111.93;44.25;;;;;;;;;;5072604;28;20055;-64
2022/01/26 07:00:57;;;;;;;202.48;72.07;;;;;;;;;;5073209;28;20096;-61
2022/01/26 07:03:23;;;;;;;160.32;57.67;;;;;;;;;;5072908;28;20021;-61
2022/01/26 07:05:50;;;;;;;187.65;67.03;;;;;;;;;;5074217;28;20016;-61
2022/01/26 07:08:16;;;;;;;227.85;82.88;;;;;;;;;;5076213;28;20464;-61
2022/01/26 07:10:44;;;;;;;181.77;65.47;;;;;;;;;;5076251;28;20517;-62
2022/01/26 07:13:11;;;;;;;168.65;64.22;;;;;;;;;;5075898;28;20052;-61
2022/01/26 07:23:33;;;;;;;159.27;57.45;;;;;;;;;;5076310;28;20097;-64
2022/01/26 07:25:59;;;;;;;168.07;62.85;;;;;;;;;;5076172;28;20020;-61
2022/01/26 07:28:27;;;;;;;121.97;48.38;;;;;;;;;;5075950;28;20364;-64
2022/01/26 07:30:53;;;;;;;128.73;49.88;;;;;;;;;;5075913;28;20012;-63
2022/01/26 07:33:19;;;;;;;140.32;53.63;;;;;;;;;;5075907;28;20074;-64
2022/01/26 07:35:45;;;;;;;98.97;41.92;;;;;;;;;;5075861;28;20027;-62
2022/01/26 07:38:11;;;;;;;106.32;45.55;;;;;;;;;;5076079;28;20115;-64
2022/01/26 07:40:39;;;;;;;86.63;38.72;;;;;;;;;;5075925;28;20017;-62
2022/01/26 07:43:05;;;;;;;93.50;42.33;;;;;;;;;;5075441;28;20020;-62
2022/01/26 07:45:31;;;;;;;79.70;34.40;;;;;;;;;;5075955;28;20021;-62
2022/01/26 07:47:58;;;;;;;88.45;37.75;;;;;;;;;;5075349;28;20021;-64
2022/01/26 07:50:24;;;;;;;90.15;39.08;;;;;;;;;;5075599;28;20024;-61
2022/01/26 07:52:51;;;;;;;80.57;35.72;;;;;;;;;;5075877;28;20115;-61
2022/01/26 07:55:19;;;;;;;113.10;42.47;;;;;;;;;;5075519;28;20012;-61
2022/01/26 07:57:48;;;;;;;85.10;35.40;;;;;;;;;;5075564;28;20047;-60
2022/01/26 08:00:14;;;;;;;101.57;41.25;;;;;;;;;;5075534;28;20526;-61
2022/01/26 08:02:41;;;;;;;86.63;37.35;;;;;;;;;;5075282;28;20103;-63
2022/01/26 08:05:07;;;;;;;88.18;37.92;;;;;;;;;;5075614;28;20191;-62
2022/01/26 08:07:34;;;;;;;86.80;37.25;;;;;;;;;;5075200;28;20387;-63
2022/01/26 08:10:00;;;;;;;129.80;50.55;;;;;;;;;;5075194;28;20452;-63
2022/01/26 08:12:26;;;;;;;77.40;33.83;;;;;;;;;;5074929;28;20071;-62
2022/01/26 08:14:52;;;;;;;67.32;32.25;;;;;;;;;;5075219;28;20063;-63
2022/01/26 08:17:18;;;;;;;72.28;31.90;;;;;;;;;;5075368;28;20016;-61
2022/01/26 08:19:44;;;;;;;66.20;31.05;;;;;;;;;;5074760;28;20064;-60
2022/01/26 08:22:17;;;;;;;66.05;32.17;;;;;;;;;;5074960;28;20111;-62
2022/01/26 08:24:44;;;;;;;97.63;41.55;;;;;;;;;;5075034;28;20016;-61
2022/01/26 08:27:12;;;;;;;85.93;38.10;;;;;;;;;;5074601;28;20458;-61
2022/01/26 08:29:44;;;;;;;87.35;40.78;;;;;;;;;;5074475;28;20028;-62
2022/01/26 08:32:10;;;;;;;92.70;38.65;;;;;;;;;;5075058;28;20103;-62
2022/01/26 08:34:37;;;;;;;89.05;39.03;;;;;;;;;;5074725;28;20013;-62
2022/01/26 08:37:04;;;;;;;91.68;42.45;;;;;;;;;;5074645;28;20012;-62
2022/01/26 08:39:32;;;;;;;101.13;42.42;;;;;;;;;;5074844;28;20024;-61
2022/01/26 08:41:58;;;;;;;130.98;52.42;;;;;;;;;;5074607;28;20048;-61
2022/01/26 08:44:25;;;;;;;182.90;66.25;;;;;;;;;;5074243;28;20025;-61
2022/01/26 08:46:52;;;;;;;101.18;43.58;;;;;;;;;;5074336;28;20135;-62
2022/01/26 08:49:18;;;;;;;156.35;61.20;;;;;;;;;;5075454;28;20059;-59
2022/01/26 08:51:48;;;;;;;161.05;64.60;;;;;;;;;;5074321;28;20017;-63
2022/01/26 08:54:15;;;;;;;153.82;63.15;;;;;;;;;;5074392;28;20023;-60
2022/01/26 08:56:41;;;;;;;110.03;50.10;;;;;;;;;;5073977;28;20024;-61
2022/01/26 08:59:08;;;;;;;135.45;57.35;;;;;;;;;;5074878;28;20040;-61
2022/01/26 09:01:34;;;;;;;133.00;59.65;;;;;;;;;;5074432;28;20414;-59
2022/01/26 09:04:00;;;;;;;152.27;66.38;;;;;;;;;;5073921;28;20373;-62
2022/01/26 09:06:26;;;;;;;158.05;66.50;;;;;;;;;;5074175;28;20558;-61
2022/01/26 09:09:00;;;;;;;169.45;66.50;;;;;;;;;;5074138;28;20066;-63
2022/01/26 09:11:27;;;;;;;182.95;74.80;;;;;;;;;;5072756;28;20008;-63
2022/01/26 09:13:57;;;;;;;139.40;62.20;;;;;;;;;;5074519;28;20016;-62
2022/01/26 09:16:25;;;;;;;142.70;63.28;;;;;;;;;;5075041;28;20025;-59
2022/01/26 09:18:55;;;;;;;157.65;70.03;;;;;;;;;;5073888;28;20170;-64
2022/01/26 09:21:21;;;;;;;112.38;53.42;;;;;;;;;;5074061;28;20061;-64
2022/01/26 09:23:48;;;;;;;142.60;61.65;;;;;;;;;;5074095;28;20017;-62
2022/01/26 09:26:14;;;;;;;97.00;45.03;;;;;;;;;;5072996;28;20051;-63
2022/01/26 09:28:41;;;;;;;92.32;45.17;;;;;;;;;;5073648;28;20348;-63
2022/01/26 09:31:07;;;;;;;132.02;54.75;;;;;;;;;;5073966;28;20443;-65
2022/01/26 09:33:33;;;;;;;131.50;60.25;;;;;;;;;;5073577;28;20100;-62
2022/01/26 09:35:59;;;;;;;122.60;52.08;;;;;;;;;;5070088;28;20013;-62
2022/01/26 09:38:26;;;;;;;101.30;47.25;;;;;;;;;;5073231;28;20029;-62
2022/01/26 09:40:52;;;;;;;122.68;54.95;;;;;;;;;;5073432;28;20024;-62
2022/01/26 09:43:19;;;;;;;111.15;50.13;;;;;;;;;;5073656;28;20012;-61
2022/01/26 09:45:46;;;;;;;103.78;46.22;;;;;;;;;;5072382;28;20346;-63
2022/01/26 09:48:13;;;;;;;118.07;54.83;;;;;;;;;;5073372;28;20415;-62
2022/01/26 09:50:42;;;;;;;80.43;39.88;;;;;;;;;;5073168;28;20025;-63
2022/01/26 09:53:10;;;;;;;101.32;45.78;;;;;;;;;;5072963;28;20027;-51
2022/01/26 09:55:41;;;;;;;83.20;40.15;;;;;;;;;;5073213;28;20092;-50
2022/01/26 09:58:07;;;;;;;67.72;36.05;;;;;;;;;;5073355;28;20047;-54
2022/01/26 10:00:33;;;;;;;71.38;36.55;;;;;;;;;;5072922;28;20020;-51
2022/01/26 10:03:00;;;;;;;111.93;48.90;;;;;;;;;;5073796;28;20099;-54
2022/01/26 10:05:37;;;;;;;86.55;42.22;;;;;;;;;;5073671;28;20016;-51
2022/01/26 10:17:18;;;;;;;107.40;48.67;;;;;;;;;;5073143;28;20128;-51
2022/01/26 10:19:24;;;;;;;93.28;45.55;;;;;;;;;;5072716;28;20465;-53
2022/01/26 10:21:51;;;;;;;93.75;44.10;;;;;;;;;;5071999;28;20020;-49
2022/01/26 10:24:20;;;;;;;80.03;39.80;;;;;;;;;;5073158;28;20473;-57
2022/01/26 10:26:50;;;;;;;79.13;38.83;;;;;;;;;;5073224;28;20017;-51
2022/01/26 10:29:17;;;;;;;81.90;39.97;;;;;;;;;;5072566;28;20477;-49
2022/01/26 10:31:43;;;;;;;79.78;39.80;;;;;;;;;;5070715;28;20074;-56
2022/01/26 10:34:12;;;;;;;72.85;38.47;;;;;;;;;;5071604;28;20392;-52
2022/01/26 10:36:39;;;;;;;77.60;37.53;;;;;;;;;;5070942;28;20361;-54
2022/01/26 10:39:07;;;;;;;65.43;35.83;;;;;;;;;;5072046;28;20400;-47
2022/01/26 10:41:34;;;;;;;72.97;35.50;;;;;;;;;;5074326;28;20016;-52
2022/01/26 10:44:02;;;;;;;65.80;33.55;;;;;;;;;;5076474;28;20095;-49
2022/01/26 10:46:30;;;;;;;65.28;31.45;;;;;;;;;;5076313;28;20027;-53
2022/01/26 10:49:43;;;;;;;58.65;31.35;;;;;;;;;;5075197;28;20024;-54
2022/01/26 10:52:55;;;;;;;76.03;36.63;;;;;;;;;;5076618;28;20449;-50
2022/01/26 10:55:09;;;;;;;80.88;38.00;;;;;;;;;;5073265;28;20017;-51
2022/01/26 10:57:36;;;;;;;71.07;37.10;;;;;;;;;;5075749;28;20053;-52
2022/01/26 11:00:05;;;;;;;69.35;34.72;;;;;;;;;;5076772;28;20031;-55
2022/01/26 11:02:33;;;;;;;64.45;32.83;;;;;;;;;;5076299;28;20020;-54
2022/01/26 11:04:59;;;;;;;65.60;31.45;;;;;;;;;;5076357;28;20066;-55
2022/01/26 11:07:36;;;;;;;65.60;32.60;;;;;;;;;;5076622;28;20012;-55
2022/01/26 11:10:04;;;;;;;62.42;33.22;;;;;;;;;;5076141;28;20357;-55
2022/01/26 11:12:30;;;;;;;82.55;41.67;;;;;;;;;;5076399;28;20361;-55
2022/01/26 11:14:58;;;;;;;92.38;45.38;;;;;;;;;;5076580;28;20012;-55
2022/01/26 11:17:26;;;;;;;89.35;44.67;;;;;;;;;;5075932;28;20016;-53
2022/01/26 11:19:53;;;;;;;66.60;32.58;;;;;;;;;;5076388;28;20021;-55
2022/01/26 11:22:26;;;;;;;79.05;37.22;;;;;;;;;;5076335;28;20107;-60
2022/01/26 11:24:52;;;;;;;57.47;31.67;;;;;;;;;;5075619;28;20082;-54
2022/01/26 11:27:19;;;;;;;54.25;29.30;;;;;;;;;;5075546;28;20127;-50
2022/01/26 11:29:48;;;;;;;59.83;31.15;;;;;;;;;;5075655;28;20028;-53
2022/01/26 11:32:19;;;;;;;56.90;30.52;;;;;;;;;;5076302;28;20029;-52
2022/01/26 11:34:48;;;;;;;63.67;32.43;;;;;;;;;;5076270;28;20031;-52
2022/01/26 11:37:16;;;;;;;64.28;32.85;;;;;;;;;;5076124;28;20252;-50
2022/01/26 11:45:22;;;;;;;64.30;34.95;;;;;;;;;;5074904;28;20381;-52
2022/01/26 11:48:03;;;;;;;73.75;37.60;;;;;;;;;;5076349;28;20047;-51
2022/01/26 11:50:30;;;;;;;70.45;36.03;;;;;;;;;;5075325;28;20023;-52
2022/01/26 11:52:59;;;;;;;74.72;36.45;;;;;;;;;;5073789;28;20020;-50
2022/01/26 11:55:31;;;;;;;72.78;36.30;;;;;;;;;;5075259;28;20353;-53
2022/01/26 11:58:12;;;;;;;66.28;36.80;;;;;;;;;;5075542;28;20111;-52
2022/01/26 12:00:47;;;;;;;76.67;37.40;;;;;;;;;;5075315;28;20017;-54
2022/01/26 12:03:46;;;;;;;80.72;39.08;;;;;;;;;;5075659;28;20020;-47
2022/01/26 12:06:21;;;;;;;72.55;38.00;;;;;;;;;;5075558;28;20013;-53
2022/01/26 12:08:47;;;;;;;71.28;35.60;;;;;;;;;;5075440;28;20078;-53
2022/01/26 12:11:15;;;;;;;84.75;39.72;;;;;;;;;;5075390;28;20032;-50
2022/01/26 12:13:42;;;;;;;83.68;39.20;;;;;;;;;;5074690;28;20020;-55
2022/01/26 12:16:12;;;;;;;78.07;39.63;;;;;;;;;;5075328;28;20071;-54
2022/01/26 12:18:53;;;;;;;81.90;40.72;;;;;;;;;;5075453;28;20032;-57
2022/01/26 12:38:02;;;;;;;94.27;45.10;;;;;;;;;;5042693;28;20158;-55
2022/01/26 12:43:38;;;;;;;86.88;44.00;;;;;;;;;;5074515;28;20082;-50
2022/01/26 12:46:06;;;;;;;95.47;46.33;;;;;;;;;;5074515;28;20449;-56
2022/01/26 12:48:34;;;;;;;91.78;46.83;;;;;;;;;;5073979;28;20405;-57
2022/01/26 12:51:00;;;;;;;88.55;45.78;;;;;;;;;;5073693;28;20020;-52
2022/01/26 12:53:28;;;;;;;85.50;44.63;;;;;;;;;;5073618;28;20028;-52
2022/01/26 12:55:58;;;;;;;82.05;44.03;;;;;;;;;;5074006;28;20017;-53
2022/01/26 12:58:26;;;;;;;87.88;43.45;;;;;;;;;;5073657;28;20041;-54
2022/01/26 13:00:52;;;;;;;90.35;48.15;;;;;;;;;;5074455;28;20029;-54
2022/01/26 13:03:19;;;;;;;99.30;50.75;;;;;;;;;;5073500;28;20071;-51
2022/01/26 13:05:46;;;;;;;91.15;49.70;;;;;;;;;;5074414;28;20020;-53
2022/01/26 13:08:12;;;;;;;93.05;48.13;;;;;;;;;;5074236;28;20029;-54
2022/01/26 13:10:40;;;;;;;95.82;49.95;;;;;;;;;;5071731;28;20009;-51
2022/01/26 13:13:10;;;;;;;98.63;50.20;;;;;;;;;;5073724;28;20239;-53
2022/01/26 13:15:44;;;;;;;97.53;51.50;;;;;;;;;;5073086;28;20017;-55
2022/01/26 13:18:21;;;;;;;92.50;46.03;;;;;;;;;;5072197;28;20039;-53
2022/01/26 13:26:40;;;;;;;88.43;45.40;;;;;;;;;;5074088;28;20029;-54
2022/01/26 13:34:49;;;;;;;92.78;50.35;;;;;;;;;;5072972;28;20032;-52
2022/01/26 14:00:31;;;;;;;83.60;42.33;;;;;;;;;;5072252;28;20346;-53
2022/01/26 14:03:01;;;;;;;80.65;41.72;;;;;;;;;;5069363;28;20394;-53
2022/01/26 14:05:27;;;;;;;87.35;43.08;;;;;;;;;;5072189;28;20487;-56
2022/01/26 14:07:56;;;;;;;78.72;41.05;;;;;;;;;;5072151;28;20017;-55
2022/01/26 14:10:22;;;;;;;74.57;40.13;;;;;;;;;;5072171;28;20095;-54
2022/01/26 14:12:49;;;;;;;77.10;39.38;;;;;;;;;;5071735;28;20016;-51
2022/01/26 14:15:22;;;;;;;79.47;38.13;;;;;;;;;;5074741;28;20039;-58
2022/01/26 14:25:40;;;;;;;77.63;40.75;;;;;;;;;;5071733;28;20028;-56
2022/01/26 14:28:09;;;;;;;82.30;42.67;;;;;;;;;;5075877;28;20058;-54
2022/01/26 14:36:44;;;;;;;;;;;;;;;;;;5034531;28;20026;-53
2022/01/26 14:56:12;;;;;;;78.93;41.58;;;;;;;;;;5076430;28;20067;-55
2022/01/26 15:42:36;;;;;;;88.80;43.60;;;;;;;;;;5075727;28;20488;-55
2022/01/26 15:50:25;;;;;;;75.60;37.90;;;;;;;;;;5075408;28;20098;-58
2022/01/26 15:53:08;;;;;;;70.82;37.03;;;;;;;;;;5075731;28;20112;-54
2022/01/26 16:20:14;;;;;;;76.88;39.88;;;;;;;;;;5075260;28;20121;-63
2022/01/26 16:39:19;;;;;;;69.78;37.92;;;;;;;;;;5073422;28;20373;-64
2022/01/26 17:26:45;;;;;;;62.55;31.90;;;;;;;;;;5073634;28;20067;-64
2022/01/26 18:49:13;;;;;;;70.35;35.38;;;;;;;;;;5072938;28;20150;-63
2022/01/26 18:51:40;;;;;;;76.85;36.10;;;;;;;;;;5073642;28;20009;-63
2022/01/26 18:54:07;;;;;;;62.33;34.08;;;;;;;;;;5072593;28;20457;-62
2022/01/26 18:56:35;;;;;;;72.28;35.63;;;;;;;;;;5071662;28;20032;-63
2022/01/26 18:59:02;;;;;;;74.57;37.05;;;;;;;;;;5072839;28;20105;-62
2022/01/26 19:01:28;;;;;;;73.88;36.28;;;;;;;;;;5073928;28;20021;-63
2022/01/26 19:03:54;;;;;;;78.35;38.40;;;;;;;;;;5076265;28;20020;-64
2022/01/26 19:06:20;;;;;;;78.25;36.40;;;;;;;;;;5076486;28;20078;-65
2022/01/26 19:08:47;;;;;;;70.85;36.83;;;;;;;;;;5077018;28;20101;-62
2022/01/26 19:11:15;;;;;;;74.13;36.53;;;;;;;;;;5073683;28;20046;-62
2022/01/26 19:13:43;;;;;;;68.15;36.42;;;;;;;;;;5076001;28;20048;-64
2022/01/26 19:16:21;;;;;;;63.63;34.03;;;;;;;;;;5076057;28;20107;-63
2022/01/26 19:18:58;;;;;;;71.30;35.58;;;;;;;;;;5076154;28;20487;-64
2022/01/26 19:21:42;;;;;;;70.00;36.70;;;;;;;;;;5076326;28;20024;-63
2022/01/26 19:26:57;;;;;;;71.57;34.05;;;;;;;;;;5074554;28;20027;-64
2022/01/26 19:51:11;;;;;;;52.72;27.20;;;;;;;;;;5059602;28;20369;-63
2022/01/26 19:53:38;;;;;;;61.78;28.58;;;;;;;;;;5075197;28;20024;-63
2022/01/26 19:56:04;;;;;;;58.50;28.20;;;;;;;;;;5074068;28;20039;-64
2022/01/26 19:58:30;;;;;;;60.70;32.22;;;;;;;;;;5072805;28;20381;-65
2022/01/26 20:00:57;;;;;;;60.28;30.23;;;;;;;;;;5075130;28;20025;-63
2022/01/26 20:03:23;;;;;;;60.95;30.55;;;;;;;;;;5074397;28;20044;-63
2022/01/26 20:05:54;;;;;;;66.82;31.98;;;;;;;;;;5075153;28;20457;-64
2022/01/26 20:10:57;;;;;;;138.32;71.78;;;;;;;;;;5075536;28;20031;-62
2022/01/26 20:13:28;;;;;;;101.47;52.63;;;;;;;;;;5072521;28;20013;-63
2022/01/26 20:15:54;;;;;;;72.40;34.45;;;;;;;;;;5075284;28;20073;-63
2022/01/26 20:18:20;;;;;;;60.17;31.77;;;;;;;;;;5074715;28;20468;-65
2022/01/26 20:20:47;;;;;;;147.52;74.45;;;;;;;;;;5074871;28;20017;-62
2022/01/26 20:23:15;;;;;;;219.32;109.05;;;;;;;;;;5074554;28;20663;-63
2022/01/26 20:25:42;;;;;;;245.55;119.95;;;;;;;;;;5074567;28;20108;-62
2022/01/26 20:28:10;;;;;;;269.65;140.20;;;;;;;;;;5072726;28;20021;-65
2022/01/26 20:30:41;;;;;;;273.08;135.15;;;;;;;;;;5073178;28;20435;-61
2022/01/26 20:33:08;;;;;;;;;;;;;;;;;;5074341;28;20024;-64
2022/01/26 20:35:34;;;;;;;239.00;116.72;;;;;;;;;;5075068;28;19900;-62
2022/01/26 20:38:00;;;;;;;249.07;123.28;;;;;;;;;;5074834;28;20021;-63
2022/01/26 20:40:26;;;;;;;246.45;121.75;;;;;;;;;;5071955;28;20461;-66
2022/01/26 20:42:52;;;;;;;238.75;117.90;;;;;;;;;;5074517;28;20013;-63
2022/01/26 20:45:23;;;;;;;232.07;116.82;;;;;;;;;;5074477;28;20484;-66
2022/01/26 20:47:50;;;;;;;230.80;119.37;;;;;;;;;;5074546;28;20418;-64
2022/01/26 20:50:16;;;;;;;273.40;139.85;;;;;;;;;;5074560;28;20269;-64
2022/01/26 20:52:43;;;;;;;294.92;156.52;;;;;;;;;;5074523;28;20017;-63
2022/01/26 20:55:09;;;;;;;312.10;165.07;;;;;;;;;;5074095;28;20021;-62
2022/01/26 20:57:37;;;;;;;332.58;173.98;;;;;;;;;;5074444;28;20037;-64
2022/01/26 21:00:04;;;;;;;341.05;179.95;;;;;;;;;;5073018;28;20059;-65
2022/01/26 21:02:30;;;;;;;320.77;170.65;;;;;;;;;;5073807;28;20020;-61
2022/01/26 21:04:57;;;;;;;334.08;175.18;;;;;;;;;;5074006;28;20017;-62
2022/01/26 21:07:23;;;;;;;354.27;190.98;;;;;;;;;;5074532;28;20021;-60
2022/01/26 21:09:49;;;;;;;259.88;133.73;;;;;;;;;;5073605;28;20103;-63
2022/01/26 21:12:15;;;;;;;211.30;104.00;;;;;;;;;;5073790;28;20379;-66
2022/01/26 21:14:41;;;;;;;211.98;109.32;;;;;;;;;;5074536;28;20031;-66
2022/01/26 21:17:08;;;;;;;243.50;122.60;;;;;;;;;;5072451;28;20031;-62
2022/01/26 21:19:35;;;;;;;231.40;111.10;;;;;;;;;;5074198;28;20465;-63
2022/01/26 21:22:02;;;;;;;125.72;62.22;;;;;;;;;;5073737;28;20028;-62
2022/01/26 21:24:28;;;;;;;110.70;56.10;;;;;;;;;;5072411;28;20027;-63
2022/01/26 21:26:56;;;;;;;110.88;56.17;;;;;;;;;;5071705;28;20467;-62
2022/01/26 21:29:22;;;;;;;111.80;52.75;;;;;;;;;;5069855;28;20032;-63
2022/01/26 21:31:48;;;;;;;106.30;52.17;;;;;;;;;;5072761;28;20020;-62
2022/01/26 21:34:14;;;;;;;102.22;50.42;;;;;;;;;;5072368;28;21354;-61
2022/01/26 21:36:41;;;;;;;89.93;45.10;;;;;;;;;;5069528;28;20023;-64